Map

Track Data

SID SEASON NUMBER BASIN SUBBASIN NAME ISO_TIME NATURE LAT LON WMO_WIND WMO_PRES WMO_AGENCY TRACK_TYPE DIST2LAND LANDFALL IFLAG USA_AGENCY USA_ATCF_ID USA_LAT USA_LON USA_RECORD USA_STATUS USA_WIND USA_PRES USA_SSHS USA_R34_NE USA_R34_SE USA_R34_SW USA_R34_NW USA_R50_NE USA_R50_SE USA_R50_SW USA_R50_NW USA_R64_NE USA_R64_SE USA_R64_SW USA_R64_NW USA_POCI USA_ROCI USA_RMW USA_EYE TOKYO_LAT TOKYO_LON TOKYO_GRADE TOKYO_WIND TOKYO_PRES TOKYO_R50_DIR TOKYO_R50_LONG TOKYO_R50_SHORT TOKYO_R30_DIR TOKYO_R30_LONG TOKYO_R30_SHORT TOKYO_LAND CMA_LAT CMA_LON CMA_CAT CMA_WIND CMA_PRES HKO_LAT HKO_LON HKO_CAT HKO_WIND HKO_PRES NEWDELHI_LAT NEWDELHI_LON NEWDELHI_GRADE NEWDELHI_WIND NEWDELHI_PRES NEWDELHI_CI NEWDELHI_DP NEWDELHI_POCI REUNION_LAT REUNION_LON REUNION_TYPE REUNION_WIND REUNION_PRES REUNION_TNUM REUNION_CI REUNION_RMW REUNION_R34_NE REUNION_R34_SE REUNION_R34_SW REUNION_R34_NW REUNION_R50_NE REUNION_R50_SE REUNION_R50_SW REUNION_R50_NW REUNION_R64_NE REUNION_R64_SE REUNION_R64_SW REUNION_R64_NW BOM_LAT BOM_LON BOM_TYPE BOM_WIND BOM_PRES BOM_TNUM BOM_CI BOM_RMW BOM_R34_NE BOM_R34_SE BOM_R34_SW BOM_R34_NW BOM_R50_NE BOM_R50_SE BOM_R50_SW BOM_R50_NW BOM_R64_NE BOM_R64_SE BOM_R64_SW BOM_R64_NW BOM_ROCI BOM_POCI BOM_EYE BOM_POS_METHOD BOM_PRES_METHOD NADI_LAT NADI_LON NADI_CAT NADI_WIND NADI_PRES WELLINGTON_LAT WELLINGTON_LON WELLINGTON_WIND WELLINGTON_PRES DS824_LAT DS824_LON DS824_STAGE DS824_WIND DS824_PRES TD9636_LAT TD9636_LON TD9636_STAGE TD9636_WIND TD9636_PRES TD9635_LAT TD9635_LON TD9635_WIND TD9635_PRES TD9635_ROCI NEUMANN_LAT NEUMANN_LON NEUMANN_CLASS NEUMANN_WIND NEUMANN_PRES MLC_LAT MLC_LON MLC_CLASS MLC_WIND MLC_PRES USA_GUST BOM_GUST BOM_GUST_PER REUNION_GUST REUNION_GUST_PER USA_SEAHGT USA_SEARAD_NE USA_SEARAD_SE USA_SEARAD_SW USA_SEARAD_NW STORM_SPEED STORM_DIR
1968314N08089 1968 116 NI BB NOT_NAMED 1968-11-08 18:00:00 TS 8.40000 89.4000 main 713 713 O________O____ jtwc_io IO111968 8.40000 89.4000 -1 8.40000 89.4000 TC 3 233
1968314N08089 1968 116 NI BB NOT_NAMED 1968-11-08 21:00:00 TS 8.31751 89.2875 main 718 718 P________P____ IO111968 8.31751 89.2875 -1 8.31751 89.2875 TC 3 270
1968314N08089 1968 116 NI BB NOT_NAMED 1968-11-09 00:00:00 TS 8.40000 89.1000 main 743 743 O________O____ jtwc_io IO111968 8.40000 89.1000 -1 8.40000 89.1000 TC 25 7 311
1968314N08089 1968 116 NI BB NOT_NAMED 1968-11-09 03:00:00 TS 8.76437 88.7776 main 782 737 P________PO___ IO111968 8.75992 88.7748 -1 8.75992 88.7748 TC 25 8.80000 88.8000 1 12 318
1968314N08089 1968 116 NI BB NOT_NAMED 1968-11-09 06:00:00 TS 9.31018 88.2802 main 740 694 O________OP___ jtwc_io IO111968 9.30000 88.3000 -1 9.30000 88.3000 TC 25 9.35088 88.2011 1 16 315
1968314N08089 1968 116 NI BB NOT_NAMED 1968-11-09 09:00:00 TS 9.89496 87.6505 main 698 655 P________PP___ IO111968 9.89269 87.6653 -1 9.89269 87.6653 TC 25 9.90102 87.6110 1 17 313
1968314N08089 1968 116 NI BB NOT_NAMED 1968-11-09 12:00:00 TS 10.4835 87.0135 main 655 625 O________OP___ jtwc_io IO111968 10.5000 87.0000 -1 10.5000 87.0000 TC 25 10.4506 87.0404 1 16 314
1968314N08089 1968 116 NI BB NOT_NAMED 1968-11-09 15:00:00 TS 11.0049 86.4798 main 630 612 P________PO___ IO111968 11.0073 86.4697 -1 11.0073 86.4697 TC 30 11.0000 86.5000 2 14 316
1968314N08089 1968 116 NI BB NOT_NAMED 1968-11-09 18:00:00 TS 11.5150 86.0004 main 612 578 O________OP___ jtwc_io IO111968 11.5000 86.0000 -1 11.5000 86.0000 TC 35 11.5450 86.0011 2 14 319
1968314N08089 1968 116 NI BB NOT_NAMED 1968-11-09 21:00:00 TS 12.0791 85.5178 main 577 526 P________PP___ IO111968 12.0875 85.4977 -1 12.0875 85.4977 TC 50 12.0622 85.5578 2 14 321
1968314N08089 1968 116 NI BB NOT_NAMED 1968-11-10 00:00:00 TS 12.5744 85.1285 main 526 499 O________OP___ jtwc_io IO111968 12.6000 85.1000 -1 12.6000 85.1000 TC 65 12.5233 85.1856 2 10 324
1968314N08089 1968 116 NI BB NOT_NAMED 1968-11-10 03:00:00 TS 12.9066 84.8981 main 499 475 P________PO___ IO111968 12.9099 84.8972 -1 12.9099 84.8972 TC 65 12.9000 84.9000 4 7 327
1968314N08089 1968 116 NI BB NOT_NAMED 1968-11-10 06:00:00 TS 13.1216 84.7696 main 475 450 O________OP___ jtwc_io IO111968 13.1000 84.8000 -1 13.1000 84.8000 TC 65 13.1649 84.7089 4 5 329
1968314N08089 1968 116 NI BB NOT_NAMED 1968-11-10 09:00:00 TS 13.2923 84.6621 main 450 435 P________PP___ IO111968 13.2650 84.6925 -1 13.2650 84.6925 TC 65 13.3470 84.6015 4 4 329
1968314N08089 1968 116 NI BB NOT_NAMED 1968-11-10 12:00:00 TS 13.4269 84.5812 main 435 410 O________OP___ jtwc_io IO111968 13.4000 84.6000 -1 13.4000 84.6000 TC 65 13.4806 84.5435 4 3 329
1968314N08089 1968 116 NI BB NOT_NAMED 1968-11-10 15:00:00 TS 13.5667 84.4950 main 410 395 P________PO___ IO111968 13.5500 84.4925 -1 13.5500 84.4925 TC 65 13.6000 84.5000 4 3 329
1968314N08089 1968 116 NI BB NOT_NAMED 1968-11-10 18:00:00 TS 13.7096 84.4045 main 395 379 O________OP___ jtwc_io IO111968 13.7000 84.4000 -1 13.7000 84.4000 TC 65 13.7287 84.4137 4 3 332
1968314N08089 1968 116 NI BB NOT_NAMED 1968-11-10 21:00:00 TS 13.8417 84.3449 main 379 361 P________PP___ IO111968 13.8350 84.3500 -1 13.8350 84.3500 TC 65 13.8550 84.3349 4 3 339
1968314N08089 1968 116 NI BB NOT_NAMED 1968-11-11 00:00:00 TS 14.0012 84.2879 main 361 337 O________OP___ jtwc_io IO111968 14.0000 84.3000 -1 14.0000 84.3000 TC 65 14.0037 84.2636 4 4 339
1968314N08089 1968 116 NI BB NOT_NAMED 1968-11-11 03:00:00 TS 14.2183 84.2000 main 337 304 P________PO___ IO111968 14.2275 84.2000 -1 14.2275 84.2000 TC 65 14.2000 84.2000 4 5 340
1968314N08089 1968 116 NI BB NOT_NAMED 1968-11-11 06:00:00 TS 14.4889 84.1062 main 304 271 O________OP___ jtwc_io IO111968 14.5000 84.1000 -1 14.5000 84.1000 TC 65 14.4666 84.1187 4 6 345
1968314N08089 1968 116 NI BB NOT_NAMED 1968-11-11 09:00:00 TS 14.7792 84.0393 main 271 247 P________PP___ IO111968 14.7775 84.0350 -1 14.7775 84.0350 TC 65 14.7825 84.0479 4 6 350
1968314N08089 1968 116 NI BB NOT_NAMED 1968-11-11 12:00:00 TS 15.1107 84.0011 main 247 219 O________OP___ jtwc_io IO111968 15.1000 84.0000 -1 15.1000 84.0000 TC 65 15.1322 84.0032 4 7 355
1968314N08089 1968 116 NI BB NOT_NAMED 1968-11-11 15:00:00 TS 15.4900 83.9850 main 219 197 P________PO___ IO111968 15.4850 83.9776 -1 15.4850 83.9776 TC 65 15.5000 84.0000 4 8 2
1968314N08089 1968 116 NI BB NOT_NAMED 1968-11-11 18:00:00 TS 15.8936 84.0135 main 197 174 O________OP___ jtwc_io IO111968 15.9000 84.0000 -1 15.9000 84.0000 TC 65 15.8809 84.0405 4 8 7
1968314N08089 1968 116 NI BB NOT_NAMED 1968-11-11 21:00:00 TS 16.3008 84.0883 main 174 146 P________PP___ IO111968 16.3150 84.0700 -1 16.3150 84.0700 TC 65 16.2724 84.1248 4 8 14
1968314N08089 1968 116 NI BB NOT_NAMED 1968-11-12 00:00:00 TS 16.6842 84.2156 main 146 138 O________OP___ jtwc_io IO111968 16.7000 84.2000 -1 16.7000 84.2000 TC 65 16.6527 84.2468 4 8 22
1968314N08089 1968 116 NI BB NOT_NAMED 1968-11-12 03:00:00 TS 17.0150 84.3900 main 138 123 P________PO___ IO111968 17.0225 84.3850 -1 17.0225 84.3850 TC 65 17.0000 84.4000 4 7 31
1968314N08089 1968 116 NI BB NOT_NAMED 1968-11-12 06:00:00 TS 17.2967 84.5918 main 123 109 O________OP___ jtwc_io IO111968 17.3000 84.6000 -1 17.3000 84.6000 TC 65 17.2901 84.5753 4 7 35
1968314N08089 1968 116 NI BB NOT_NAMED 1968-11-12 09:00:00 TS 17.5583 84.7925 main 107 107 P________PP___ IO111968 17.5650 84.8000 -1 17.5650 84.8000 TC 65 17.5451 84.7775 4 6 38
1968314N08089 1968 116 NI BB NOT_NAMED 1968-11-12 12:00:00 TS 17.7925 84.9970 main 107 107 O________OP___ jtwc_io IO111968 17.8000 85.0000 -1 17.8000 85.0000 TC 65 17.7776 84.9910 4 6 42
1968314N08089 1968 116 NI BB NOT_NAMED 1968-11-12 15:00:00 TS 18.0000 85.2050 main 107 107 P________PO___ IO111968 18.0000 85.2076 -1 18.0000 85.2076 TC 50 18.0000 85.2000 4 6 42
1968314N08089 1968 116 NI BB NOT_NAMED 1968-11-12 18:00:00 TS 18.2052 85.3888 main 107 101 O________OP___ jtwc_io IO111968 18.2000 85.4000 -1 18.2000 85.4000 TC 35 18.2157 85.3665 4 5 36
1968314N08089 1968 116 NI BB NOT_NAMED 1968-11-12 21:00:00 TS 18.4374 85.5428 main 104 103 P________PP___ IO111968 18.4424 85.5501 -1 18.4424 85.5501 TC 35 18.4272 85.5283 4 6 32
1968314N08089 1968 116 NI BB NOT_NAMED 1968-11-13 00:00:00 TS 18.6834 85.7003 main 103 88 O________OP___ jtwc_io IO111968 18.7000 85.7000 -1 18.7000 85.7000 TC 35 18.6501 85.7010 4 6 33
1968314N08089 1968 116 NI BB NOT_NAMED 1968-11-13 03:00:00 TS 18.9233 85.8801 main 94 74 P________PO___ IO111968 18.9349 85.8702 -1 18.9349 85.8702 TC 35 18.9000 85.9000 2 7 37
1968314N08089 1968 116 NI BB NOT_NAMED 1968-11-13 06:00:00 TS 19.2110 86.1246 main 74 54 O________OP___ jtwc_io IO111968 19.2000 86.1000 -1 19.2000 86.1000 TC 35 19.2331 86.1739 2 9 40
1968314N08089 1968 116 NI BB NOT_NAMED 1968-11-13 09:00:00 TS 19.5678 86.4619 main 45 33 P________PP___ IO111968 19.5577 86.4572 -1 19.5577 86.4572 TC 35 19.5879 86.4713 2 9 42
1968314N08089 1968 116 NI BB NOT_NAMED 1968-11-13 12:00:00 TS 19.9079 86.7861 main 43 30 O________OP___ jtwc_io IO111968 19.9000 86.8000 -1 19.9000 86.8000 TC 35 19.9238 86.7582 2 8 40
1968314N08089 1968 116 NI BB NOT_NAMED 1968-11-13 15:00:00 TS 20.1583 86.9918 main 33 33 P________PO___ IO111968 20.1374 86.9877 -1 20.1374 86.9877 TC 35 20.2000 87.0000 3 5 37
1968314N08089 1968 116 NI BB NOT_NAMED 1968-11-13 18:00:00 TS 20.3174 87.1116 main 38 30 O________OP___ jtwc_io IO111968 20.3000 87.1000 -1 20.3000 87.1000 TC 35 20.3521 87.1349 3 3 38
1968314N08089 1968 116 NI BB NOT_NAMED 1968-11-13 21:00:00 TS 20.4198 87.2079 main 38 30 P________PP___ IO111968 20.4075 87.2001 -1 20.4075 87.2001 TC 35 20.4445 87.2236 3 3 43
1968314N08089 1968 116 NI BB NOT_NAMED 1968-11-14 00:00:00 TS 20.5049 87.3001 main 38 33 O________OP___ jtwc_io IO111968 20.5000 87.3000 -1 20.5000 87.3000 TC 35 20.5147 87.3004 3 3 44
1968314N08089 1968 116 NI BB NOT_NAMED 1968-11-14 03:00:00 TS 20.6283 87.4233 main 43 41 P________PO___ IO111968 20.6425 87.4350 -1 20.6425 87.4350 TC 35 20.6000 87.4000 3 4 44
1968314N08089 1968 116 NI BB NOT_NAMED 1968-11-14 06:00:00 TS 20.7832 87.5917 main 62 62 O________OP___ jtwc_io IO111968 20.8000 87.6000 -1 20.8000 87.6000 TC 35 20.7495 87.5752 3 5 48
1968314N08089 1968 116 NI BB NOT_NAMED 1968-11-14 09:00:00 TS 20.9350 87.7875 main 83 59 P________PP___ IO111968 20.9425 87.7925 -1 20.9425 87.7925 TC 35 20.9201 87.7774 3 5 50
1968314N08089 1968 116 NI BB NOT_NAMED 1968-11-14 12:00:00 TS 21.1019 87.9970 main 59 33 O________OP___ jtwc_io IO111968 21.1000 88.0000 -1 21.1000 88.0000 TC 35 21.1057 87.9909 3 5 47
1968314N08089 1968 116 NI BB NOT_NAMED 1968-11-14 15:00:00 TS 21.2950 88.2050 main 33 11 P________PO___ IO111968 21.2925 88.2075 -1 21.2925 88.2075 TC 35 21.3000 88.2000 3 5 43
1968314N08089 1968 116 NI BB NOT_NAMED 1968-11-14 18:00:00 TS 21.4991 88.3970 main 11 0 O________OP___ jtwc_io IO111968 21.5000 88.4000 -1 21.5000 88.4000 TC 35 21.4978 88.3924 3 5 39
1968314N08089 1968 116 NI BB NOT_NAMED 1968-11-14 21:00:00 TS 21.7004 88.5642 main 10 0 P________PP___ IO111968 21.7025 88.5600 -1 21.7025 88.5600 TC 30 21.6975 88.5698 3 5 37
1968314N08089 1968 116 NI BB NOT_NAMED 1968-11-15 00:00:00 TS 21.8992 88.7186 main 10 0 O________OP___ jtwc_io IO111968 21.9000 88.7000 -1 21.9000 88.7000 TC 25 21.8985 88.7373 3 5 38
1968314N08089 1968 116 NI BB NOT_NAMED 1968-11-15 03:00:00 NR 22.1000 88.9000 main 0 __________O___ IO111968 -1 TC 22.1000 88.9000 1 5 40

About IBTrACS Database

This database is a web-friendly format of International Best Track Archive for Climate Stewardship (IBTrACS), a global best track data archive curated by NOAA dating back to 1842.

Updated: 2021-12-03